West Coast Haida Gwaii - southern half: Past 24 Hour Conditions

 

South Hecate Strait - 46185

10:00 AM PDT 20 June 2018Buoy position: 52.43N 129.79W
Disclaimer

This table is a summary of hourly weather conditions for the past 24 hours.
Please note that these observations might not always be representative of weather conditions over their associated marine area.

Date / Time
(PDT)
Wind(knots) Wave height(m) Wave period(s) Pressure(kPa) Air tempC) Water tempC)
20 June 2018
10:00 SSE 10 gust 12 1.0 15.0 101.5 11 13
9:00 SSE 8 gust 10 1.1 15.0 101.5 11 13
8:00 SE 6 gust 8 1.1 15.0 101.5 11 12
7:00 SSE 6 gust 8 1.1 15.0 101.5 11 12
6:00 S 8 gust 10 1.1 15.0 101.5 11 12
5:00 SSE 10 gust 12 1.0 15.0 101.5 11 12
4:00 SSE 12 gust 14 1.1 14.0 101.5 11 12
3:00 SE 12 gust 16 0.9 12.0 101.6 11 13
2:00 SE 10 gust 12 1.0 15.0 101.6 11 12
1:00 SSE 10 gust 10 1.0 15.0 101.6 11 13
0:00 S 10 gust 12 1.0 15.0 101.6 11 13
19 June 2018
23:00 SSE 8 gust 10 0.9 15.0 101.6 13 13
22:00 SE 10 gust 14 0.9 14.0 101.6 13 13
21:00 SE 8 gust 8 0.9 15.0 101.6 13 13
20:00 SSE 6 gust 8 1.0 14.0 101.6 13 13
19:00 SSE 8 gust 8 0.9 16.0 101.6 13 13
18:00 SSE 8 gust 8 1.1 15.0 101.6 13 13
17:00 SE 8 gust 8 1.0 15.0 101.6 13 13
16:00 SSE 6 gust 6 1.1 15.0 101.6 13 13
15:00 SSE 8 gust 10 0.9 15.0 101.6 13 13
14:00 SE 8 gust 10 0.9 15.0 101.6 13 12
13:00 SE 8 gust 10 0.9 15.0 101.6 13 12
12:00 SE 8 gust 8 1.0 16.0 101.6 13 12
11:00 ESE 6 gust 8 0.9 16.0 101.6 13 12
10:00 ENE 4 gust 6 0.9 16.0 101.5 13 12

Zoom-in to make a selection

Map of Pacific - South Coast marine weather areas South Nomad - 46036 Sentry Shoal - 46131 South Brooks - 46132 Halibut Bank - 46146 South Moresby - 46147 South Hecate Strait - 46185 West Sea Otter - 46204 La Perouse Bank - 46206 East Dellwood - 46207 Discovery Island Esquimalt Harbour Kelp Reefs Malahat Race Rocks Lightstation Saturna Island Sheringham Point University of Victoria Victoria Gonzales Victoria Int'l Airport Ballenas Islands Campbell River Airport Comox Airport Entrance Island Fanny Island Nanaimo Airport Port Hardy Airport Sisters Islets Estevan Point Port Alberni Sartine Island Solander Island Tofino Airport Grief Point Howe Sound - Pam Rocks Powell River Airport Sechelt Squamish Airport Cape St.James Bella Bella Airport Bella Coola Airport Cathedral Point Herbert Island Point Atkinson Sand Heads Lightstation Tsawwassen Ferry Terminal Vancouver Int'l Airport Vancouver Harbour West Vancouver
Legend:
buoy Buoy
land station Land Station

Pacific - South Coast Area

Another Region

What we are doing

Features

Lightning Safety

When thunder roars, GO INDOORS!

Air Quality Health Index

Be Air Aware

Summer Severe Weather

Be prepared!

Date modified: